createdAt,value
2018-04-17T00:04:29.361Z,14.03
2018-04-17T00:10:20.253Z,22.97
2018-04-17T00:16:11.146Z,15.69
2018-04-17T00:22:02.027Z,13.05
2018-04-17T00:27:52.880Z,14.74
2018-04-17T00:33:43.784Z,14.49
2018-04-17T00:39:34.646Z,16.64
2018-04-17T00:45:25.546Z,12.25
2018-04-17T00:51:16.405Z,12.91
2018-04-17T00:57:07.296Z,10.99
2018-04-17T01:02:58.207Z,15.13
2018-04-17T01:08:49.088Z,13.18
2018-04-17T01:14:39.992Z,13.81
2018-04-17T01:20:30.842Z,14.17
2018-04-17T01:26:21.669Z,20.24
2018-04-17T01:32:12.635Z,13.17
2018-04-17T01:38:03.469Z,13.34
2018-04-17T01:43:54.311Z,13.75
2018-04-17T01:49:45.204Z,14.39
2018-04-17T01:55:36.108Z,13.49
2018-04-17T02:01:27.061Z,11.33
2018-04-17T02:07:17.860Z,14.03
2018-04-17T02:13:08.721Z,11.39
2018-04-17T02:18:59.630Z,7.91
2018-04-17T02:24:50.548Z,16.3
2018-04-17T02:30:41.368Z,11.7
2018-04-17T02:36:32.197Z,18.08
2018-04-17T02:42:23.132Z,13.04
2018-04-17T02:48:13.944Z,11.08
2018-04-17T02:54:04.832Z,17.52
2018-04-17T02:59:55.819Z,14.34
2018-04-17T03:05:46.598Z,15.15
2018-04-17T03:11:37.474Z,16.66
2018-04-17T03:17:28.380Z,8.29
2018-04-17T03:23:19.276Z,14.51
2018-04-17T03:29:10.126Z,13.76
2018-04-17T03:35:00.967Z,23
2018-04-17T03:40:51.888Z,14.3
2018-04-17T03:46:42.785Z,16.45
2018-04-17T03:52:33.679Z,13.53
2018-04-17T03:58:24.533Z,14.74
2018-04-17T04:04:15.339Z,11.84
2018-04-17T04:10:06.248Z,13.87
2018-04-17T04:15:57.130Z,11.09
2018-04-17T04:21:48.003Z,13.59
2018-04-17T04:27:38.867Z,13.78
2018-04-17T04:33:29.735Z,12.16
2018-04-17T04:39:20.599Z,18.1
2018-04-17T04:45:11.491Z,12.02
2018-04-17T04:51:02.366Z,16.48
2018-04-17T04:56:53.250Z,13.1
2018-04-17T05:02:44.080Z,8.3
2018-04-17T05:08:34.985Z,15.14
2018-04-17T05:14:25.888Z,10.34
2018-04-17T05:20:16.699Z,10.77
2018-04-17T05:26:07.684Z,17.6
2018-04-17T05:31:58.454Z,12.89
2018-04-17T05:37:49.384Z,11.25
2018-04-17T05:43:40.197Z,18.17
2018-04-17T05:49:31.084Z,17.01
2018-04-17T05:55:22.002Z,13.25
2018-04-17T06:01:12.824Z,18.96
2018-04-17T06:07:03.713Z,17.39
2018-04-17T06:12:54.623Z,19.95
2018-04-17T06:18:45.457Z,20.73
2018-04-17T06:24:36.332Z,18.96
2018-04-17T06:30:27.208Z,22.29
2018-04-17T06:36:18.079Z,27.33
2018-04-17T06:42:08.960Z,35.91
2018-04-17T06:47:59.841Z,32.48
2018-04-17T06:53:50.718Z,32.97
2018-04-17T06:59:41.604Z,43.39
2018-04-17T07:05:32.432Z,42.93
2018-04-17T07:11:23.297Z,51.05
2018-04-17T07:17:14.182Z,40.71
2018-04-17T07:23:05.153Z,35.97
2018-04-17T07:28:55.954Z,38.77
2018-04-17T07:34:46.831Z,39.06
2018-04-17T07:40:37.732Z,33.15
2018-04-17T07:46:28.607Z,28.9
2018-04-17T07:52:19.465Z,32.92
2018-04-17T07:58:10.384Z,28.18
2018-04-17T08:04:01.614Z,19.04
2018-04-17T08:09:52.135Z,35.16
2018-04-17T08:15:42.999Z,28.94
2018-04-17T08:21:33.874Z,35.17
2018-04-17T08:27:24.745Z,38.67
2018-04-17T08:33:15.593Z,32.96
2018-04-17T08:39:06.477Z,22.42
2018-04-17T08:44:57.374Z,24.19
2018-04-17T08:50:48.325Z,18.31
2018-04-17T08:56:39.105Z,25.88
2018-04-17T09:02:30.072Z,31.46
2018-04-17T09:08:20.869Z,37.1
2018-04-17T09:14:11.921Z,33.29
2018-04-17T09:20:02.824Z,29.8
2018-04-17T09:25:53.636Z,37.05
2018-04-17T09:31:44.587Z,31.84
2018-04-17T09:37:35.463Z,26.13
2018-04-17T09:43:26.285Z,30.26
2018-04-17T09:49:17.191Z,28.47
2018-04-17T09:55:08.091Z,27.57
2018-04-17T10:00:58.999Z,31.95
2018-04-17T10:06:49.834Z,32.03
2018-04-17T10:12:40.761Z,42.2
2018-04-17T10:18:31.675Z,29.9
2018-04-17T10:24:22.556Z,32.56
2018-04-17T10:30:13.433Z,34
2018-04-17T10:36:04.343Z,40.08
2018-04-17T10:41:55.233Z,36.62
2018-04-17T10:47:46.110Z,42.68
2018-04-17T10:53:37.030Z,32.2
2018-04-17T10:59:27.896Z,29.33
2018-04-17T11:05:18.848Z,29.02
2018-04-17T11:11:09.716Z,27.25
2018-04-17T11:17:00.631Z,23.37
2018-04-17T11:22:51.596Z,28.4
2018-04-17T11:28:42.452Z,20.48
2018-04-17T11:34:33.425Z,20.92
2018-04-17T11:40:24.284Z,19.62
2018-04-17T11:46:15.180Z,23.86
2018-04-17T11:52:06.098Z,30
2018-04-17T11:57:57.045Z,29.24
2018-04-17T12:03:47.964Z,28.03
2018-04-17T12:09:38.826Z,43.03
2018-04-17T12:15:29.794Z,48.99
2018-04-17T12:21:20.775Z,47.67
2018-04-17T12:27:11.648Z,53.46
2018-04-17T12:33:02.595Z,53.03
2018-04-17T12:38:53.497Z,64.86
2018-04-17T12:44:44.378Z,46.44
2018-04-17T12:50:35.400Z,38.85
2018-04-17T12:56:26.273Z,40.64
2018-04-17T13:02:17.193Z,43.56
2018-04-17T13:08:08.104Z,42.41
2018-04-17T13:13:59.056Z,37.49
2018-04-17T13:19:50.024Z,41.41
2018-04-17T13:25:41.017Z,52.82
2018-04-17T13:31:31.923Z,59.75
2018-04-17T13:37:22.843Z,76.19
2018-04-17T13:43:13.841Z,38
2018-04-17T13:49:04.755Z,32.8
2018-04-17T13:54:55.731Z,26.91
2018-04-17T14:00:46.701Z,28.22
2018-04-17T14:06:37.589Z,23.8
2018-04-17T14:12:28.578Z,21.85
2018-04-17T14:18:19.538Z,18.03
2018-04-17T14:24:10.477Z,15.13
2018-04-17T14:30:01.418Z,13.76
2018-04-17T14:35:52.429Z,13.89
2018-04-17T14:41:43.291Z,16.37
2018-04-17T14:47:34.244Z,14.85
2018-04-17T14:53:25.153Z,9.84
2018-04-17T14:59:16.089Z,7.26
2018-04-17T15:05:07.035Z,8.97
2018-04-17T15:10:58.008Z,10.59
2018-04-17T15:16:48.899Z,6.84
2018-04-17T15:22:39.857Z,10.07
2018-04-17T15:28:30.836Z,8.84
2018-04-17T15:34:21.733Z,9.81
2018-04-17T15:40:12.677Z,9.92
2018-04-17T15:46:09.770Z,6.48
2018-04-17T15:51:54.559Z,8.13
2018-04-17T15:57:45.471Z,9.2
2018-04-17T16:03:36.542Z,14.1
2018-04-17T16:09:27.352Z,8.4
2018-04-17T16:15:18.249Z,5.18
2018-04-17T16:21:09.211Z,6.6
2018-04-17T16:27:00.187Z,6.28
2018-04-17T16:32:51.135Z,8.24
2018-04-17T16:38:41.996Z,8.95
2018-04-17T16:44:32.936Z,11.43
2018-04-17T16:50:23.885Z,10.79
2018-04-17T16:56:14.808Z,10.64
2018-04-17T17:02:05.724Z,14.37
2018-04-17T17:07:56.682Z,14.07
2018-04-17T17:13:47.633Z,11.04
2018-04-17T17:19:38.515Z,9.63
2018-04-17T17:25:29.437Z,14.51
2018-04-17T17:31:20.403Z,18.94
2018-04-17T17:37:11.287Z,18.04
2018-04-17T17:43:02.207Z,24.79
2018-04-17T17:48:53.128Z,17.72
2018-04-17T17:54:44.064Z,11.91
2018-04-17T18:00:34.969Z,10.34
2018-04-17T18:06:25.921Z,11.06
2018-04-17T18:12:16.930Z,14.79
2018-04-17T18:18:07.718Z,11.88
2018-04-17T18:23:58.689Z,18.2
2018-04-17T18:29:49.561Z,13.51
2018-04-17T18:35:40.482Z,15.49
2018-04-17T18:41:31.369Z,15.53
2018-04-17T18:47:22.307Z,13.22
2018-04-17T18:53:13.193Z,15.24
2018-04-17T18:59:04.105Z,11.97
2018-04-17T19:04:55.044Z,9.13
2018-04-17T19:10:45.961Z,11.79
2018-04-17T19:16:36.837Z,10.16
2018-04-17T19:22:27.769Z,15.76
2018-04-17T19:28:18.708Z,12.71
2018-04-17T19:34:09.560Z,12.58
2018-04-17T19:40:00.518Z,11.7
2018-04-17T19:45:51.464Z,13.01
2018-04-17T19:51:42.404Z,11.97
2018-04-17T19:57:33.207Z,7.41
2018-04-17T20:03:24.121Z,9.44
2018-04-17T20:09:15.019Z,12.26
2018-04-17T20:15:05.913Z,13.14
2018-04-17T20:20:56.853Z,8.11
2018-04-17T20:26:47.751Z,10.36
2018-04-17T20:32:38.643Z,7.47
2018-04-17T20:38:29.627Z,8.29
2018-04-17T20:44:20.424Z,14.37
2018-04-17T20:50:11.352Z,9.31
2018-04-17T20:56:02.261Z,7.53
2018-04-17T21:01:53.176Z,16.33
2018-04-17T21:07:44.027Z,11.02
2018-04-17T21:13:34.976Z,11.66
2018-04-17T21:19:25.844Z,8.76
2018-04-17T21:25:16.758Z,9.89
2018-04-17T21:31:07.673Z,9.71
2018-04-17T21:36:58.592Z,8.68
2018-04-17T21:42:49.532Z,6.39
2018-04-17T21:48:40.342Z,8.73
2018-04-17T21:54:31.246Z,9.27
2018-04-17T22:00:22.155Z,10.55
2018-04-17T22:06:13.067Z,11.12
2018-04-17T22:12:03.921Z,8.28
2018-04-17T22:17:54.829Z,7.29
2018-04-17T22:23:45.744Z,10.31
2018-04-17T22:29:36.624Z,11.65
2018-04-17T22:35:27.543Z,10.39
2018-04-17T22:41:18.406Z,8.89
2018-04-17T22:47:09.389Z,10.44
2018-04-17T22:53:00.198Z,8.03
2018-04-17T22:58:51.160Z,8.07
2018-04-17T23:04:42.041Z,11.03
2018-04-17T23:10:32.945Z,10.26
2018-04-17T23:16:23.804Z,16.99
2018-04-17T23:22:14.675Z,12.65
2018-04-17T23:28:05.628Z,11.14
2018-04-17T23:33:56.494Z,9.04
2018-04-17T23:39:47.422Z,9.91
2018-04-17T23:45:38.306Z,19.61
2018-04-17T23:51:29.203Z,9.38
2018-04-17T23:57:20.169Z,15.37
